CYDP/YDP METAR and TAF weather

Enter ICAO airport designator
Station Type Date Time Source
CYDP METAR 2024/02/26 18:00 UTC NOAA

CYDP 261800Z VRB02KT 15SM FEW058 BKN075 OVC230 M08/M13 A2969 RMK SC2AC3CS3 SLP055


Station Type Date Time Source
CYDP Decoded METAR 2024/02/26 18:00 UTC NOAA

Nain, Nfld, Canada (CYDP) 56-33N 061-41W 7M
Feb 26, 2024 - 01:00 PM EST / 2024.02.26 1800 UTC
Wind: Variable at 2 MPH (2 KT):0
Visibility: 15 mile(s):0
Sky conditions: overcast
Temperature: 17 F (-8 C)
Dew Point: 8 F (-13 C)
Relative Humidity: 67%
Pressure (altimeter): 29.69 in. Hg (1005 hPa)
ob: CYDP 261800Z VRB02KT 15SM FEW058 BKN075 OVC230 M08/M13 A2969 RMK SC2AC3CS3 SLP055
cycle: 18

Station Type Date Time Source
CYDP TAF 2024/02/26 14:00 UTC NOAA